sensor_id;sensor_type;location;lat;lon;timestamp;temperature;humidity
62912;DHT22;49111;51.028;4.218;2023-03-11T06:52:00;2.00;99.90
62912;DHT22;49111;51.028;4.218;2023-03-11T06:54:26;2.50;99.90
62912;DHT22;49111;51.028;4.218;2023-03-11T06:56:52;2.60;99.90
62912;DHT22;49111;51.028;4.218;2023-03-11T06:59:18;2.60;99.90
62912;DHT22;49111;51.028;4.218;2023-03-11T07:01:44;2.50;99.90
62912;DHT22;49111;51.028;4.218;2023-03-11T07:04:10;2.60;99.90
62912;DHT22;49111;51.028;4.218;2023-03-11T07:06:38;2.60;99.90
62912;DHT22;49111;51.028;4.218;2023-03-11T07:09:13;2.60;99.90
62912;DHT22;49111;51.028;4.218;2023-03-11T07:11:42;2.60;99.90
62912;DHT22;49111;51.028;4.218;2023-03-11T07:14:11;2.60;99.90
62912;DHT22;49111;51.028;4.218;2023-03-11T07:16:41;2.70;99.90
62912;DHT22;49111;51.028;4.218;2023-03-11T07:19:14;2.70;99.90
62912;DHT22;49111;51.028;4.218;2023-03-11T07:21:41;2.70;99.90
62912;DHT22;49111;51.028;4.218;2023-03-11T07:24:07;2.80;99.90
62912;DHT22;49111;51.028;4.218;2023-03-11T07:26:34;2.80;99.90
62912;DHT22;49111;51.028;4.218;2023-03-11T07:29:00;2.80;99.90
62912;DHT22;49111;51.028;4.218;2023-03-11T07:31:29;2.80;99.90
62912;DHT22;49111;51.028;4.218;2023-03-11T07:33:59;2.90;99.90
62912;DHT22;49111;51.028;4.218;2023-03-11T07:36:26;2.90;99.90
62912;DHT22;49111;51.028;4.218;2023-03-11T07:38:57;3.00;99.90
62912;DHT22;49111;51.028;4.218;2023-03-11T07:41:25;3.00;99.90
62912;DHT22;49111;51.028;4.218;2023-03-11T07:43:56;3.10;99.90
62912;DHT22;49111;51.028;4.218;2023-03-11T07:46:23;3.00;99.90
62912;DHT22;49111;51.028;4.218;2023-03-11T07:48:50;3.10;99.90
62912;DHT22;49111;51.028;4.218;2023-03-11T07:51:18;3.00;99.90
62912;DHT22;49111;51.028;4.218;2023-03-11T07:53:44;3.10;99.90
62912;DHT22;49111;51.028;4.218;2023-03-11T07:56:13;3.00;99.90
62912;DHT22;49111;51.028;4.218;2023-03-11T07:58:39;3.10;99.90
62912;DHT22;49111;51.028;4.218;2023-03-11T08:01:08;3.20;99.90
62912;DHT22;49111;51.028;4.218;2023-03-11T08:03:35;3.30;99.90
62912;DHT22;49111;51.028;4.218;2023-03-11T08:06:01;3.30;99.90
62912;DHT22;49111;51.028;4.218;2023-03-11T08:08:27;3.20;99.90
62912;DHT22;49111;51.028;4.218;2023-03-11T08:11:02;3.20;99.90
62912;DHT22;49111;51.028;4.218;2023-03-11T08:14:07;3.30;99.90
62912;DHT22;49111;51.028;4.218;2023-03-11T08:23:41;3.50;99.90
62912;DHT22;49111;51.028;4.218;2023-03-11T08:30:49;3.50;99.90
62912;DHT22;49111;51.028;4.218;2023-03-11T08:37:59;3.70;99.90
62912;DHT22;49111;51.028;4.218;2023-03-11T08:40:25;3.80;99.90
62912;DHT22;49111;51.028;4.218;2023-03-11T08:42:54;3.90;99.90
62912;DHT22;49111;51.028;4.218;2023-03-11T08:45:21;3.90;99.90
62912;DHT22;49111;51.028;4.218;2023-03-11T08:51:17;4.10;99.90
62912;DHT22;49111;51.028;4.218;2023-03-11T08:53:44;4.20;99.90
62912;DHT22;49111;51.028;4.218;2023-03-11T08:56:10;4.20;99.90
62912;DHT22;49111;51.028;4.218;2023-03-11T08:58:36;4.20;99.90
62912;DHT22;49111;51.028;4.218;2023-03-11T09:01:03;4.30;99.90
62912;DHT22;49111;51.028;4.218;2023-03-11T09:03:35;4.30;99.90
62912;DHT22;49111;51.028;4.218;2023-03-11T09:06:07;4.40;99.90
62912;DHT22;49111;51.028;4.218;2023-03-11T09:08:33;4.40;99.90
62912;DHT22;49111;51.028;4.218;2023-03-11T09:10:59;4.50;99.90
62912;DHT22;49111;51.028;4.218;2023-03-11T09:13:25;4.60;99.90
62912;DHT22;49111;51.028;4.218;2023-03-11T09:15:51;4.70;99.90
62912;DHT22;49111;51.028;4.218;2023-03-11T09:18:18;4.80;99.90
62912;DHT22;49111;51.028;4.218;2023-03-11T09:20:44;4.90;99.90
62912;DHT22;49111;51.028;4.218;2023-03-11T09:23:12;5.00;99.90
62912;DHT22;49111;51.028;4.218;2023-03-11T09:25:38;4.90;99.90
62912;DHT22;49111;51.028;4.218;2023-03-11T09:28:04;5.00;99.90
62912;DHT22;49111;51.028;4.218;2023-03-11T09:30:29;5.10;99.90
62912;DHT22;49111;51.028;4.218;2023-03-11T09:32:55;5.20;99.90
62912;DHT22;49111;51.028;4.218;2023-03-11T09:35:21;5.30;99.90
62912;DHT22;49111;51.028;4.218;2023-03-11T09:37:47;5.40;99.90
62912;DHT22;49111;51.028;4.218;2023-03-11T09:40:18;5.50;99.90
62912;DHT22;49111;51.028;4.218;2023-03-11T09:43:03;5.60;99.90
62912;DHT22;49111;51.028;4.218;2023-03-11T09:45:35;5.90;99.90
62912;DHT22;49111;51.028;4.218;2023-03-11T09:48:32;6.00;99.90
62912;DHT22;49111;51.028;4.218;2023-03-11T09:51:04;6.00;99.90
62912;DHT22;49111;51.028;4.218;2023-03-11T09:53:42;6.10;99.90
62912;DHT22;49111;51.028;4.218;2023-03-11T09:56:17;6.20;99.90
62912;DHT22;49111;51.028;4.218;2023-03-11T09:58:58;6.40;99.90
62912;DHT22;49111;51.028;4.218;2023-03-11T10:01:36;6.50;99.90
62912;DHT22;49111;51.028;4.218;2023-03-11T10:07:42;6.60;99.90
62912;DHT22;49111;51.028;4.218;2023-03-11T10:10:13;6.60;99.90
62912;DHT22;49111;51.028;4.218;2023-03-11T10:12:49;6.70;99.90
62912;DHT22;49111;51.028;4.218;2023-03-11T10:21:19;7.20;96.90
62912;DHT22;49111;51.028;4.218;2023-03-11T10:24:12;7.20;97.30
62912;DHT22;49111;51.028;4.218;2023-03-11T10:26:50;7.30;96.00
62912;DHT22;49111;51.028;4.218;2023-03-11T10:29:28;7.50;93.50
62912;DHT22;49111;51.028;4.218;2023-03-11T10:32:14;7.70;93.30
62912;DHT22;49111;51.028;4.218;2023-03-11T10:38:14;7.70;93.50
62912;DHT22;49111;51.028;4.218;2023-03-11T10:40:43;7.70;93.40
62912;DHT22;49111;51.028;4.218;2023-03-11T10:43:28;7.90;94.00
62912;DHT22;49111;51.028;4.218;2023-03-11T10:45:56;8.10;93.10
62912;DHT22;49111;51.028;4.218;2023-03-11T10:48:24;8.00;93.40
62912;DHT22;49111;51.028;4.218;2023-03-11T10:53:43;8.10;93.00
62912;DHT22;49111;51.028;4.218;2023-03-11T10:56:36;7.80;91.70
62912;DHT22;49111;51.028;4.218;2023-03-11T10:59:04;7.70;91.90
62912;DHT22;49111;51.028;4.218;2023-03-11T11:01:30;7.70;92.80
62912;DHT22;49111;51.028;4.218;2023-03-11T11:03:58;7.80;92.80
62912;DHT22;49111;51.028;4.218;2023-03-11T11:09:13;8.10;92.10
62912;DHT22;49111;51.028;4.218;2023-03-11T11:11:41;8.40;92.00
62912;DHT22;49111;51.028;4.218;2023-03-11T11:14:07;8.50;91.30
62912;DHT22;49111;51.028;4.218;2023-03-11T11:16:34;8.40;92.30
62912;DHT22;49111;51.028;4.218;2023-03-11T11:19:07;8.50;90.70
62912;DHT22;49111;51.028;4.218;2023-03-11T11:21:40;8.60;89.00
62912;DHT22;49111;51.028;4.218;2023-03-11T11:26:36;8.70;90.80
62912;DHT22;49111;51.028;4.218;2023-03-11T11:31:35;8.80;90.20
62912;DHT22;49111;51.028;4.218;2023-03-11T11:34:01;8.90;88.90
62912;DHT22;49111;51.028;4.218;2023-03-11T11:36:30;8.90;87.40
62912;DHT22;49111;51.028;4.218;2023-03-11T11:38:58;9.00;89.10
62912;DHT22;49111;51.028;4.218;2023-03-11T11:41:28;9.10;88.30
62912;DHT22;49111;51.028;4.218;2023-03-11T11:43:58;9.10;88.20
62912;DHT22;49111;51.028;4.218;2023-03-11T11:46:46;9.00;87.70
62912;DHT22;49111;51.028;4.218;2023-03-11T11:49:33;9.00;86.90
62912;DHT22;49111;51.028;4.218;2023-03-11T11:52:45;9.00;87.20
62912;DHT22;49111;51.028;4.218;2023-03-11T11:55:10;8.90;84.80
62912;DHT22;49111;51.028;4.218;2023-03-11T11:57:37;8.90;85.00
62912;DHT22;49111;51.028;4.218;2023-03-11T12:00:19;8.80;82.80
62912;DHT22;49111;51.028;4.218;2023-03-11T12:03:02;8.70;86.20
62912;DHT22;49111;51.028;4.218;2023-03-11T12:05:51;8.80;82.90
62912;DHT22;49111;51.028;4.218;2023-03-11T12:08:21;8.80;82.10
62912;DHT22;49111;51.028;4.218;2023-03-11T12:18:54;9.00;84.30
62912;DHT22;49111;51.028;4.218;2023-03-11T12:21:25;9.20;82.40
62912;DHT22;49111;51.028;4.218;2023-03-11T12:26:27;9.50;80.70
62912;DHT22;49111;51.028;4.218;2023-03-11T12:29:17;9.50;76.80
62912;DHT22;49111;51.028;4.218;2023-03-11T12:31:45;9.20;81.00
62912;DHT22;49111;51.028;4.218;2023-03-11T12:34:13;9.20;83.40
62912;DHT22;49111;51.028;4.218;2023-03-11T12:36:43;9.60;80.20
62912;DHT22;49111;51.028;4.218;2023-03-11T12:39:36;9.70;78.30
62912;DHT22;49111;51.028;4.218;2023-03-11T12:42:21;9.60;74.80
62912;DHT22;49111;51.028;4.218;2023-03-11T12:44:48;9.60;79.50
62912;DHT22;49111;51.028;4.218;2023-03-11T12:47:24;9.60;78.90
62912;DHT22;49111;51.028;4.218;2023-03-11T12:52:52;9.60;77.90
62912;DHT22;49111;51.028;4.218;2023-03-11T13:08:50;10.20;79.50
62912;DHT22;49111;51.028;4.218;2023-03-11T13:11:35;10.30;81.90
62912;DHT22;49111;51.028;4.218;2023-03-11T13:16:48;10.60;83.70
62912;DHT22;49111;51.028;4.218;2023-03-11T13:19:34;10.60;80.20
62912;DHT22;49111;51.028;4.218;2023-03-11T13:22:04;10.50;76.60
62912;DHT22;49111;51.028;4.218;2023-03-11T13:40:52;10.20;78.30
62912;DHT22;49111;51.028;4.218;2023-03-11T13:43:20;10.40;76.90
62912;DHT22;49111;51.028;4.218;2023-03-11T13:45:57;10.30;74.70
62912;DHT22;49111;51.028;4.218;2023-03-11T13:48:29;10.50;77.50
62912;DHT22;49111;51.028;4.218;2023-03-11T13:51:12;10.70;75.50
62912;DHT22;49111;51.028;4.218;2023-03-11T13:56:21;11.20;72.40
62912;DHT22;49111;51.028;4.218;2023-03-11T13:58:47;11.30;70.80
62912;DHT22;49111;51.028;4.218;2023-03-11T14:01:16;11.50;70.20
62912;DHT22;49111;51.028;4.218;2023-03-11T14:03:43;11.40;63.40
62912;DHT22;49111;51.028;4.218;2023-03-11T14:06:18;11.50;66.40
62912;DHT22;49111;51.028;4.218;2023-03-11T14:08:53;11.40;71.00
62912;DHT22;49111;51.028;4.218;2023-03-11T14:11:19;11.50;72.50
62912;DHT22;49111;51.028;4.218;2023-03-11T14:13:49;11.60;69.10
62912;DHT22;49111;51.028;4.218;2023-03-11T14:19:04;11.10;69.10
62912;DHT22;49111;51.028;4.218;2023-03-11T14:21:33;11.00;69.30
62912;DHT22;49111;51.028;4.218;2023-03-11T14:23:59;11.10;72.10
62912;DHT22;49111;51.028;4.218;2023-03-11T14:26:29;11.30;71.10
62912;DHT22;49111;51.028;4.218;2023-03-11T14:28:57;11.40;71.90
62912;DHT22;49111;51.028;4.218;2023-03-11T14:31:31;11.50;70.90
62912;DHT22;49111;51.028;4.218;2023-03-11T14:33:57;11.60;71.60
62912;DHT22;49111;51.028;4.218;2023-03-11T14:36:38;11.70;68.80
62912;DHT22;49111;51.028;4.218;2023-03-11T14:39:03;11.60;67.90
62912;DHT22;49111;51.028;4.218;2023-03-11T14:41:29;11.50;69.40
62912;DHT22;49111;51.028;4.218;2023-03-11T14:43:55;11.50;69.20
62912;DHT22;49111;51.028;4.218;2023-03-11T14:46:26;11.50;70.40
62912;DHT22;49111;51.028;4.218;2023-03-11T14:48:54;11.20;71.00
62912;DHT22;49111;51.028;4.218;2023-03-11T14:51:32;10.90;69.80
62912;DHT22;49111;51.028;4.218;2023-03-11T14:54:12;10.60;73.00
62912;DHT22;49111;51.028;4.218;2023-03-11T14:56:45;10.50;72.60
62912;DHT22;49111;51.028;4.218;2023-03-11T14:59:20;10.20;72.70
62912;DHT22;49111;51.028;4.218;2023-03-11T15:01:48;10.10;73.70
62912;DHT22;49111;51.028;4.218;2023-03-11T15:06:52;10.10;73.70
62912;DHT22;49111;51.028;4.218;2023-03-11T15:09:20;10.20;75.50
62912;DHT22;49111;51.028;4.218;2023-03-11T15:11:57;10.30;76.40
62912;DHT22;49111;51.028;4.218;2023-03-11T15:17:17;10.60;72.60
62912;DHT22;49111;51.028;4.218;2023-03-11T15:19:43;10.70;72.40
62912;DHT22;49111;51.028;4.218;2023-03-11T15:22:36;10.80;73.50
62912;DHT22;49111;51.028;4.218;2023-03-11T15:25:11;10.90;73.40
62912;DHT22;49111;51.028;4.218;2023-03-11T15:27:39;11.00;71.50
62912;DHT22;49111;51.028;4.218;2023-03-11T15:30:18;11.10;71.10
62912;DHT22;49111;51.028;4.218;2023-03-11T15:32:45;11.10;70.90
62912;DHT22;49111;51.028;4.218;2023-03-11T15:35:22;11.10;70.30
62912;DHT22;49111;51.028;4.218;2023-03-11T15:37:51;10.90;68.60
62912;DHT22;49111;51.028;4.218;2023-03-11T15:40:35;11.00;69.00
62912;DHT22;49111;51.028;4.218;2023-03-11T15:43:23;11.00;66.90
62912;DHT22;49111;51.028;4.218;2023-03-11T15:45:51;11.10;67.20
62912;DHT22;49111;51.028;4.218;2023-03-11T15:48:21;11.20;68.20
62912;DHT22;49111;51.028;4.218;2023-03-11T15:50:49;11.20;68.30
62912;DHT22;49111;51.028;4.218;2023-03-11T15:53:16;11.30;66.50
62912;DHT22;49111;51.028;4.218;2023-03-11T15:55:42;11.20;68.90
62912;DHT22;49111;51.028;4.218;2023-03-11T15:58:10;11.30;68.80
62912;DHT22;49111;51.028;4.218;2023-03-11T16:00:36;11.30;69.40
62912;DHT22;49111;51.028;4.218;2023-03-11T16:03:03;11.30;71.90
62912;DHT22;49111;51.028;4.218;2023-03-11T16:05:29;11.30;70.20
62912;DHT22;49111;51.028;4.218;2023-03-11T16:07:55;11.10;69.70
62912;DHT22;49111;51.028;4.218;2023-03-11T16:10:22;11.10;70.70
62912;DHT22;49111;51.028;4.218;2023-03-11T16:12:53;11.20;70.00
62912;DHT22;49111;51.028;4.218;2023-03-11T16:15:34;11.00;68.20
62912;DHT22;49111;51.028;4.218;2023-03-11T16:18:02;11.00;69.80
62912;DHT22;49111;51.028;4.218;2023-03-11T16:20:45;11.00;68.60
62912;DHT22;49111;51.028;4.218;2023-03-11T16:23:18;11.00;69.10
62912;DHT22;49111;51.028;4.218;2023-03-11T16:25:46;11.00;72.60
62912;DHT22;49111;51.028;4.218;2023-03-11T16:28:14;10.90;70.70
62912;DHT22;49111;51.028;4.218;2023-03-11T16:30:40;10.90;69.30
62912;DHT22;49111;51.028;4.218;2023-03-11T16:33:06;10.80;71.40
62912;DHT22;49111;51.028;4.218;2023-03-11T16:35:32;10.80;71.80
62912;DHT22;49111;51.028;4.218;2023-03-11T16:37:58;10.70;70.50
62912;DHT22;49111;51.028;4.218;2023-03-11T16:40:25;10.60;72.10
62912;DHT22;49111;51.028;4.218;2023-03-11T16:43:02;10.50;74.20
62912;DHT22;49111;51.028;4.218;2023-03-11T16:45:28;10.50;74.80
62912;DHT22;49111;51.028;4.218;2023-03-11T16:47:54;10.50;74.00
62912;DHT22;49111;51.028;4.218;2023-03-11T16:50:19;10.40;76.00
62912;DHT22;49111;51.028;4.218;2023-03-11T16:52:48;10.40;76.40
62912;DHT22;49111;51.028;4.218;2023-03-11T16:55:13;10.40;77.00
62912;DHT22;49111;51.028;4.218;2023-03-11T16:57:40;10.40;77.60
62912;DHT22;49111;51.028;4.218;2023-03-11T17:00:08;10.40;78.40
62912;DHT22;49111;51.028;4.218;2023-03-11T17:02:35;10.30;79.20
62912;DHT22;49111;51.028;4.218;2023-03-11T17:05:01;10.30;81.40
62912;DHT22;49111;51.028;4.218;2023-03-11T17:07:28;10.20;81.90
62912;DHT22;49111;51.028;4.218;2023-03-11T17:09:54;10.20;81.40
62912;DHT22;49111;51.028;4.218;2023-03-11T17:12:21;10.10;80.70
62912;DHT22;49111;51.028;4.218;2023-03-11T17:14:47;10.00;80.20
62912;DHT22;49111;51.028;4.218;2023-03-11T17:17:13;9.90;81.80
62912;DHT22;49111;51.028;4.218;2023-03-11T17:19:39;9.80;79.50
62912;DHT22;49111;51.028;4.218;2023-03-11T17:22:04;9.70;81.50
62912;DHT22;49111;51.028;4.218;2023-03-11T17:24:30;9.70;82.00
62912;DHT22;49111;51.028;4.218;2023-03-11T17:26:56;9.70;82.40
62912;DHT22;49111;51.028;4.218;2023-03-11T17:29:22;9.70;84.30
62912;DHT22;49111;51.028;4.218;2023-03-11T17:31:47;9.80;86.00
62912;DHT22;49111;51.028;4.218;2023-03-11T17:34:13;9.70;86.50
62912;DHT22;49111;51.028;4.218;2023-03-11T17:47:41;9.60;91.80
62912;DHT22;49111;51.028;4.218;2023-03-11T17:50:09;9.60;91.70
62912;DHT22;49111;51.028;4.218;2023-03-11T17:52:35;9.50;90.60
62912;DHT22;49111;51.028;4.218;2023-03-11T17:55:01;9.50;90.30
62912;DHT22;49111;51.028;4.218;2023-03-11T17:57:27;9.40;91.10
62912;DHT22;49111;51.028;4.218;2023-03-11T17:59:52;9.50;91.80
62912;DHT22;49111;51.028;4.218;2023-03-11T18:02:18;9.40;92.10
62912;DHT22;49111;51.028;4.218;2023-03-11T18:04:49;9.40;91.90
62912;DHT22;49111;51.028;4.218;2023-03-11T18:07:17;9.30;92.50
62912;DHT22;49111;51.028;4.218;2023-03-11T18:09:43;9.30;92.90
62912;DHT22;49111;51.028;4.218;2023-03-11T18:12:09;9.20;93.10
62912;DHT22;49111;51.028;4.218;2023-03-11T18:14:35;9.20;93.60
62912;DHT22;49111;51.028;4.218;2023-03-11T18:17:01;9.10;94.30
62912;DHT22;49111;51.028;4.218;2023-03-11T18:19:26;9.10;94.70
62912;DHT22;49111;51.028;4.218;2023-03-11T18:21:52;9.00;95.60
62912;DHT22;49111;51.028;4.218;2023-03-11T18:24:19;9.00;95.80
62912;DHT22;49111;51.028;4.218;2023-03-11T18:26:45;8.90;95.90
62912;DHT22;49111;51.028;4.218;2023-03-11T18:29:10;8.90;96.10
62912;DHT22;49111;51.028;4.218;2023-03-11T18:31:38;8.80;96.10
62912;DHT22;49111;51.028;4.218;2023-03-11T18:34:04;8.80;96.50
62912;DHT22;49111;51.028;4.218;2023-03-11T18:36:36;8.70;96.60
62912;DHT22;49111;51.028;4.218;2023-03-11T18:39:02;8.70;97.00
62912;DHT22;49111;51.028;4.218;2023-03-11T18:41:32;8.60;97.10
62912;DHT22;49111;51.028;4.218;2023-03-11T18:43:58;8.50;97.30
62912;DHT22;49111;51.028;4.218;2023-03-11T18:46:26;8.50;97.70
62912;DHT22;49111;51.028;4.218;2023-03-11T18:48:53;8.50;98.00
62912;DHT22;49111;51.028;4.218;2023-03-11T18:51:21;8.40;98.30
62912;DHT22;49111;51.028;4.218;2023-03-11T18:53:47;8.40;97.90
62912;DHT22;49111;51.028;4.218;2023-03-11T18:56:16;8.30;98.30
62912;DHT22;49111;51.028;4.218;2023-03-11T18:58:42;8.30;97.50
62912;DHT22;49111;51.028;4.218;2023-03-11T19:01:11;8.30;97.20
62912;DHT22;49111;51.028;4.218;2023-03-11T19:03:39;8.20;98.30
62912;DHT22;49111;51.028;4.218;2023-03-11T19:06:07;8.20;98.80
62912;DHT22;49111;51.028;4.218;2023-03-11T19:08:33;8.10;98.20
62912;DHT22;49111;51.028;4.218;2023-03-11T19:10:58;8.00;98.90
62912;DHT22;49111;51.028;4.218;2023-03-11T19:13:24;8.00;99.40
62912;DHT22;49111;51.028;4.218;2023-03-11T19:15:50;8.00;99.90
62912;DHT22;49111;51.028;4.218;2023-03-11T19:18:17;8.00;99.90
62912;DHT22;49111;51.028;4.218;2023-03-11T19:20:43;8.00;99.90
62912;DHT22;49111;51.028;4.218;2023-03-11T19:23:09;7.90;99.90
62912;DHT22;49111;51.028;4.218;2023-03-11T19:25:36;7.90;99.90
